sensor_id;sensor_type;location;lat;lon;timestamp;pressure;altitude;pressure_sealevel;temperature;humidity
12949;BME280;6539;49.476;8.484;2023-07-28T00:02:32;99756.97;;;18.58;100.00
12949;BME280;6539;49.476;8.484;2023-07-28T00:05:18;99756.19;;;18.58;100.00
12949;BME280;6539;49.476;8.484;2023-07-28T00:08:04;99751.56;;;18.55;100.00
12949;BME280;6539;49.476;8.484;2023-07-28T00:10:52;99758.19;;;18.57;100.00
12949;BME280;6539;49.476;8.484;2023-07-28T00:13:39;99757.41;;;18.57;100.00
12949;BME280;6539;49.476;8.484;2023-07-28T00:16:25;99759.44;;;18.56;100.00
12949;BME280;6539;49.476;8.484;2023-07-28T00:19:16;99763.75;;;18.57;100.00
12949;BME280;6539;49.476;8.484;2023-07-28T00:22:02;99759.31;;;18.51;100.00
12949;BME280;6539;49.476;8.484;2023-07-28T00:24:48;99749.41;;;18.59;100.00
12949;BME280;6539;49.476;8.484;2023-07-28T00:27:34;99748.56;;;18.67;100.00
12949;BME280;6539;49.476;8.484;2023-07-28T00:30:23;99748.66;;;18.73;100.00
12949;BME280;6539;49.476;8.484;2023-07-28T00:33:09;99753.91;;;18.71;100.00
12949;BME280;6539;49.476;8.484;2023-07-28T00:35:57;99753.28;;;18.76;100.00
12949;BME280;6539;49.476;8.484;2023-07-28T00:38:43;99750.88;;;18.83;100.00
12949;BME280;6539;49.476;8.484;2023-07-28T00:41:29;99746.84;;;18.84;100.00
12949;BME280;6539;49.476;8.484;2023-07-28T00:44:15;99739.31;;;18.99;100.00
12949;BME280;6539;49.476;8.484;2023-07-28T00:47:04;99729.88;;;18.97;100.00
12949;BME280;6539;49.476;8.484;2023-07-28T00:49:53;99728.16;;;18.99;100.00
12949;BME280;6539;49.476;8.484;2023-07-28T00:52:41;99732.75;;;19.02;100.00
12949;BME280;6539;49.476;8.484;2023-07-28T00:55:28;99738.22;;;18.97;100.00
12949;BME280;6539;49.476;8.484;2023-07-28T00:58:17;99734.88;;;18.93;100.00
12949;BME280;6539;49.476;8.484;2023-07-28T01:01:03;99736.47;;;18.85;100.00
12949;BME280;6539;49.476;8.484;2023-07-28T01:03:52;99724.31;;;18.82;100.00
12949;BME280;6539;49.476;8.484;2023-07-28T01:07:09;99738.69;;;18.81;100.00
12949;BME280;6539;49.476;8.484;2023-07-28T01:10:06;99734.38;;;18.80;100.00
12949;BME280;6539;49.476;8.484;2023-07-28T01:12:52;99733.50;;;18.74;100.00
12949;BME280;6539;49.476;8.484;2023-07-28T01:15:38;99740.41;;;18.78;100.00
12949;BME280;6539;49.476;8.484;2023-07-28T01:18:24;99739.66;;;18.78;100.00
12949;BME280;6539;49.476;8.484;2023-07-28T01:21:20;99725.34;;;18.85;100.00
12949;BME280;6539;49.476;8.484;2023-07-28T01:24:29;99732.75;;;18.88;100.00
12949;BME280;6539;49.476;8.484;2023-07-28T01:27:17;99735.25;;;18.86;100.00
12949;BME280;6539;49.476;8.484;2023-07-28T01:30:07;99729.09;;;18.82;100.00
12949;BME280;6539;49.476;8.484;2023-07-28T01:32:57;99724.13;;;18.86;100.00
12949;BME280;6539;49.476;8.484;2023-07-28T01:35:43;99718.28;;;18.84;100.00
12949;BME280;6539;49.476;8.484;2023-07-28T01:38:29;99726.63;;;18.84;100.00
12949;BME280;6539;49.476;8.484;2023-07-28T01:41:15;99722.56;;;18.85;100.00
12949;BME280;6539;49.476;8.484;2023-07-28T01:44:01;99722.78;;;18.81;100.00
12949;BME280;6539;49.476;8.484;2023-07-28T01:46:48;99726.63;;;18.84;100.00
12949;BME280;6539;49.476;8.484;2023-07-28T01:49:34;99729.97;;;18.88;100.00
12949;BME280;6539;49.476;8.484;2023-07-28T01:52:22;99732.94;;;18.84;100.00
12949;BME280;6539;49.476;8.484;2023-07-28T01:55:09;99722.56;;;18.85;100.00
12949;BME280;6539;49.476;8.484;2023-07-28T01:57:58;99729.13;;;18.96;100.00
12949;BME280;6539;49.476;8.484;2023-07-28T02:00:44;99729.31;;;18.93;100.00
12949;BME280;6539;49.476;8.484;2023-07-28T02:03:32;99733.31;;;18.92;100.00
12949;BME280;6539;49.476;8.484;2023-07-28T02:06:21;99732.56;;;18.91;100.00
12949;BME280;6539;49.476;8.484;2023-07-28T02:09:09;99732.56;;;18.91;100.00
12949;BME280;6539;49.476;8.484;2023-07-28T02:11:55;99733.81;;;18.90;100.00
12949;BME280;6539;49.476;8.484;2023-07-28T02:14:41;99728.41;;;18.87;100.00
12949;BME280;6539;49.476;8.484;2023-07-28T02:17:27;99734.31;;;18.89;100.00
12949;BME280;6539;49.476;8.484;2023-07-28T02:20:16;99727.69;;;18.86;100.00
12949;BME280;6539;49.476;8.484;2023-07-28T02:23:05;99740.03;;;18.85;100.00
12949;BME280;6539;49.476;8.484;2023-07-28T02:25:51;99738.69;;;18.81;100.00
12949;BME280;6539;49.476;8.484;2023-07-28T02:28:37;99723.84;;;18.84;100.00
12949;BME280;6539;49.476;8.484;2023-07-28T02:31:25;99724.84;;;18.72;100.00
12949;BME280;6539;49.476;8.484;2023-07-28T02:34:11;99718.91;;;18.64;100.00
12949;BME280;6539;49.476;8.484;2023-07-28T02:36:57;99722.72;;;18.52;100.00
12949;BME280;6539;49.476;8.484;2023-07-28T02:39:45;99718.16;;;18.40;100.00
12949;BME280;6539;49.476;8.484;2023-07-28T02:42:34;99711.72;;;18.34;100.00
12949;BME280;6539;49.476;8.484;2023-07-28T02:45:22;99713.91;;;18.30;100.00
12949;BME280;6539;49.476;8.484;2023-07-28T02:48:11;99725.50;;;18.28;100.00
12949;BME280;6539;49.476;8.484;2023-07-28T02:50:57;99724.44;;;18.26;100.00
12949;BME280;6539;49.476;8.484;2023-07-28T02:53:43;99724.44;;;18.26;100.00
12949;BME280;6539;49.476;8.484;2023-07-28T02:56:29;99729.22;;;18.25;100.00
12949;BME280;6539;49.476;8.484;2023-07-28T02:59:15;99727.97;;;18.26;100.00
12949;BME280;6539;49.476;8.484;2023-07-28T03:02:01;99727.03;;;18.29;100.00
12949;BME280;6539;49.476;8.484;2023-07-28T03:04:47;99728.69;;;18.36;100.00
12949;BME280;6539;49.476;8.484;2023-07-28T03:07:33;99729.44;;;18.37;100.00
12949;BME280;6539;49.476;8.484;2023-07-28T03:10:19;99733.94;;;18.34;100.00
12949;BME280;6539;49.476;8.484;2023-07-28T03:13:05;99735.66;;;18.32;100.00
12949;BME280;6539;49.476;8.484;2023-07-28T03:15:51;99732.53;;;18.39;100.00
12949;BME280;6539;49.476;8.484;2023-07-28T03:18:37;99724.66;;;18.37;100.00
12949;BME280;6539;49.476;8.484;2023-07-28T03:21:30;99730.97;;;18.38;100.00
12949;BME280;6539;49.476;8.484;2023-07-28T03:24:17;99741.63;;;18.39;100.00
12949;BME280;6539;49.476;8.484;2023-07-28T03:27:08;99732.03;;;18.40;100.00
12949;BME280;6539;49.476;8.484;2023-07-28T03:29:56;99725.72;;;18.40;100.00
12949;BME280;6539;49.476;8.484;2023-07-28T03:32:42;99718.97;;;18.32;100.00
12949;BME280;6539;49.476;8.484;2023-07-28T03:35:31;99718.88;;;18.26;100.00
12949;BME280;6539;49.476;8.484;2023-07-28T03:38:17;99721.22;;;18.18;100.00
12949;BME280;6539;49.476;8.484;2023-07-28T03:41:04;99718.47;;;18.18;100.00
12949;BME280;6539;49.476;8.484;2023-07-28T03:43:50;99723.72;;;18.16;100.00
12949;BME280;6539;49.476;8.484;2023-07-28T03:46:36;99723.44;;;18.14;100.00
12949;BME280;6539;49.476;8.484;2023-07-28T03:49:24;99726.22;;;18.14;100.00
12949;BME280;6539;49.476;8.484;2023-07-28T03:52:11;99723.44;;;18.14;100.00
12949;BME280;6539;49.476;8.484;2023-07-28T03:54:59;99728.22;;;18.14;100.00
12949;BME280;6539;49.476;8.484;2023-07-28T03:57:45;99732.53;;;18.15;100.00
12949;BME280;6539;49.476;8.484;2023-07-28T04:00:31;99734.53;;;18.14;100.00
12949;BME280;6539;49.476;8.484;2023-07-28T04:03:17;99731.75;;;18.14;100.00
12949;BME280;6539;49.476;8.484;2023-07-28T04:06:11;99732.53;;;18.15;100.00
12949;BME280;6539;49.476;8.484;2023-07-28T04:08:57;99736.09;;;18.15;100.00
12949;BME280;6539;49.476;8.484;2023-07-28T04:11:43;99733.91;;;18.19;100.00
12949;BME280;6539;49.476;8.484;2023-07-28T04:14:32;99739.75;;;18.21;100.00
12949;BME280;6539;49.476;8.484;2023-07-28T04:17:18;99735.41;;;18.20;100.00
12949;BME280;6539;49.476;8.484;2023-07-28T04:20:05;99733.22;;;18.24;100.00
12949;BME280;6539;49.476;8.484;2023-07-28T04:22:54;99739.84;;;18.27;100.00
12949;BME280;6539;49.476;8.484;2023-07-28T04:25:40;99742.91;;;18.29;100.00
12949;BME280;6539;49.476;8.484;2023-07-28T04:28:28;99741.41;;;18.28;100.00
12949;BME280;6539;49.476;8.484;2023-07-28T04:31:14;99750.50;;;18.28;100.00
12949;BME280;6539;49.476;8.484;2023-07-28T04:34:01;99756.06;;;18.28;100.00
12949;BME280;6539;49.476;8.484;2023-07-28T04:36:50;99751.09;;;18.33;100.00
12949;BME280;6539;49.476;8.484;2023-07-28T04:39:36;99760.81;;;18.37;100.00
12949;BME280;6539;49.476;8.484;2023-07-28T04:42:22;99767.88;;;18.38;100.00
12949;BME280;6539;49.476;8.484;2023-07-28T04:45:11;99779.47;;;18.37;100.00
12949;BME280;6539;49.476;8.484;2023-07-28T04:47:57;99764.63;;;18.40;100.00
12949;BME280;6539;49.476;8.484;2023-07-28T04:50:44;99769.59;;;18.36;100.00
12949;BME280;6539;49.476;8.484;2023-07-28T04:53:31;99764.41;;;18.28;100.00
12949;BME280;6539;49.476;8.484;2023-07-28T04:56:19;99776.84;;;18.33;100.00
12949;BME280;6539;49.476;8.484;2023-07-28T04:59:05;99774.56;;;18.32;100.00
12949;BME280;6539;49.476;8.484;2023-07-28T05:01:54;99759.44;;;18.33;100.00
12949;BME280;6539;49.476;8.484;2023-07-28T05:04:40;99758.38;;;18.30;100.00
12949;BME280;6539;49.476;8.484;2023-07-28T05:07:29;99763.28;;;18.35;100.00
12949;BME280;6539;49.476;8.484;2023-07-28T05:10:15;99772.06;;;18.34;100.00
12949;BME280;6539;49.476;8.484;2023-07-28T05:13:01;99771.72;;;18.41;100.00
12949;BME280;6539;49.476;8.484;2023-07-28T05:15:50;99770.47;;;18.42;100.00
12949;BME280;6539;49.476;8.484;2023-07-28T05:18:38;99779.28;;;18.40;100.00
12949;BME280;6539;49.476;8.484;2023-07-28T05:21:28;99775.56;;;18.43;100.00
12949;BME280;6539;49.476;8.484;2023-07-28T05:24:14;99779.44;;;18.46;100.00
12949;BME280;6539;49.476;8.484;2023-07-28T05:27:00;99778.97;;;18.47;100.00
12949;BME280;6539;49.476;8.484;2023-07-28T05:29:49;99780.97;;;18.47;100.00
12949;BME280;6539;49.476;8.484;2023-07-28T05:32:35;99782.81;;;18.50;100.00
12949;BME280;6539;49.476;8.484;2023-07-28T05:35:21;99778.50;;;18.49;100.00
12949;BME280;6539;49.476;8.484;2023-07-28T05:38:07;99776.78;;;18.51;100.00
12949;BME280;6539;49.476;8.484;2023-07-28T05:40:59;99773.22;;;18.51;100.00
12949;BME280;6539;49.476;8.484;2023-07-28T05:43:49;99770.44;;;18.51;100.00
12949;BME280;6539;49.476;8.484;2023-07-28T05:46:39;99777.56;;;18.52;100.00
12949;BME280;6539;49.476;8.484;2023-07-28T05:49:26;99785.69;;;18.55;100.00
12949;BME280;6539;49.476;8.484;2023-07-28T05:52:12;99784.28;;;18.60;100.00
12949;BME280;6539;49.476;8.484;2023-07-28T05:55:00;99790.44;;;18.64;100.00
12949;BME280;6539;49.476;8.484;2023-07-28T05:57:48;99797.94;;;18.72;100.00
12949;BME280;6539;49.476;8.484;2023-07-28T06:00:38;99797.00;;;18.75;100.00
12949;BME280;6539;49.476;8.484;2023-07-28T06:03:27;99797.56;;;18.79;100.00
12949;BME280;6539;49.476;8.484;2023-07-28T06:06:15;99796.16;;;18.84;100.00
12949;BME280;6539;49.476;8.484;2023-07-28T06:09:05;99804.28;;;18.87;100.00
12949;BME280;6539;49.476;8.484;2023-07-28T06:11:52;99813.72;;;18.90;100.00
12949;BME280;6539;49.476;8.484;2023-07-28T06:14:38;99817.25;;;18.90;100.00
12949;BME280;6539;49.476;8.484;2023-07-28T06:17:24;99821.56;;;18.91;100.00
12949;BME280;6539;49.476;8.484;2023-07-28T06:20:15;99820.22;;;18.87;100.00
12949;BME280;6539;49.476;8.484;2023-07-28T06:23:03;99821.75;;;18.88;100.00
12949;BME280;6539;49.476;8.484;2023-07-28T06:25:52;99828.88;;;18.89;100.00
12949;BME280;6539;49.476;8.484;2023-07-28T06:28:40;99828.69;;;18.92;100.00
12949;BME280;6539;49.476;8.484;2023-07-28T06:31:28;99835.78;;;18.93;100.00
12949;BME280;6539;49.476;8.484;2023-07-28T06:34:17;99848.94;;;18.93;100.00
12949;BME280;6539;49.476;8.484;2023-07-28T06:37:03;99843.66;;;18.95;100.00
12949;BME280;6539;49.476;8.484;2023-07-28T06:39:49;99845.75;;;19.00;100.00
12949;BME280;6539;49.476;8.484;2023-07-28T06:42:39;99847.03;;;18.99;100.00
12949;BME280;6539;49.476;8.484;2023-07-28T06:45:25;99858.44;;;19.01;100.00
12949;BME280;6539;49.476;8.484;2023-07-28T06:48:11;99857.50;;;19.04;100.00
12949;BME280;6539;49.476;8.484;2023-07-28T06:50:57;99855.59;;;19.10;100.00
12949;BME280;6539;49.476;8.484;2023-07-28T06:53:43;99859.25;;;19.16;100.00
12949;BME280;6539;49.476;8.484;2023-07-28T06:56:31;99867.69;;;19.22;100.00
12949;BME280;6539;49.476;8.484;2023-07-28T06:59:17;99867.22;;;19.23;100.00
12949;BME280;6539;49.476;8.484;2023-07-28T07:02:04;99867.31;;;19.29;100.00
12949;BME280;6539;49.476;8.484;2023-07-28T07:04:51;99871.94;;;19.32;100.00
12949;BME280;6539;49.476;8.484;2023-07-28T07:07:37;99869.47;;;19.34;100.00
12949;BME280;6539;49.476;8.484;2023-07-28T07:10:24;99867.75;;;19.36;100.00
12949;BME280;6539;49.476;8.484;2023-07-28T07:13:10;99877.34;;;19.35;100.00
12949;BME280;6539;49.476;8.484;2023-07-28T07:15:57;99874.38;;;19.39;100.00
12949;BME280;6539;49.476;8.484;2023-07-28T07:18:45;99877.28;;;19.44;100.00
12949;BME280;6539;49.476;8.484;2023-07-28T07:21:34;99881.28;;;19.43;100.00
12949;BME280;6539;49.476;8.484;2023-07-28T07:24:20;99880.63;;;19.48;100.00
12949;BME280;6539;49.476;8.484;2023-07-28T07:27:09;99884.19;;;19.49;100.00
12949;BME280;6539;49.476;8.484;2023-07-28T07:29:58;99886.97;;;19.49;100.00
12949;BME280;6539;49.476;8.484;2023-07-28T07:32:44;99888.78;;;19.52;100.00
12949;BME280;6539;49.476;8.484;2023-07-28T07:35:30;99887.06;;;19.54;100.00
12949;BME280;6539;49.476;8.484;2023-07-28T07:38:16;99882.75;;;19.53;100.00
12949;BME280;6539;49.476;8.484;2023-07-28T07:41:07;99887.84;;;19.55;100.00
12949;BME280;6539;49.476;8.484;2023-07-28T07:43:59;99891.97;;;19.59;100.00
12949;BME280;6539;49.476;8.484;2023-07-28T07:46:45;99893.50;;;19.60;100.00
12949;BME280;6539;49.476;8.484;2023-07-28T07:49:35;99897.66;;;19.80;100.00
12949;BME280;6539;49.476;8.484;2023-07-28T07:52:24;99898.09;;;19.93;100.00
12949;BME280;6539;49.476;8.484;2023-07-28T07:55:10;99903.69;;;20.07;100.00
12949;BME280;6539;49.476;8.484;2023-07-28T07:57:59;99901.75;;;20.13;100.00
12949;BME280;6539;49.476;8.484;2023-07-28T08:00:45;99903.88;;;20.18;100.00
12949;BME280;6539;49.476;8.484;2023-07-28T08:03:34;99909.84;;;20.26;100.00
12949;BME280;6539;49.476;8.484;2023-07-28T08:06:21;99911.19;;;20.30;100.00
12949;BME280;6539;49.476;8.484;2023-07-28T08:09:07;99913.19;;;20.30;100.00
12949;BME280;6539;49.476;8.484;2023-07-28T08:11:56;99913.09;;;20.39;100.00
12949;BME280;6539;49.476;8.484;2023-07-28T08:14:43;99915.47;;;20.46;100.00
12949;BME280;6539;49.476;8.484;2023-07-28T08:17:34;99908.81;;;20.58;100.00
12949;BME280;6539;49.476;8.484;2023-07-28T08:20:20;99908.19;;;20.69;100.00
12949;BME280;6539;49.476;8.484;2023-07-28T08:23:07;99909.03;;;20.75;100.00
12949;BME280;6539;49.476;8.484;2023-07-28T08:25:55;99908.06;;;20.78;100.00
12949;BME280;6539;49.476;8.484;2023-07-28T08:28:41;99908.84;;;20.98;100.00
12949;BME280;6539;49.476;8.484;2023-07-28T08:31:28;99898.94;;;20.97;100.00
12949;BME280;6539;49.476;8.484;2023-07-28T08:34:14;99907.53;;;20.94;100.00
12949;BME280;6539;49.476;8.484;2023-07-28T08:37:01;99911.53;;;21.07;100.00
12949;BME280;6539;49.476;8.484;2023-07-28T08:39:47;99902.19;;;21.10;99.11
12949;BME280;6539;49.476;8.484;2023-07-28T08:42:39;99905.66;;;21.25;97.89
12949;BME280;6539;49.476;8.484;2023-07-28T08:45:25;99912.75;;;21.47;98.87
12949;BME280;6539;49.476;8.484;2023-07-28T08:48:11;99914.13;;;21.57;91.17
12949;BME280;6539;49.476;8.484;2023-07-28T08:50:57;99922.03;;;21.58;92.32
12949;BME280;6539;49.476;8.484;2023-07-28T08:53:46;99919.03;;;21.67;91.94
12949;BME280;6539;49.476;8.484;2023-07-28T08:56:32;99917.81;;;21.94;90.88
12949;BME280;6539;49.476;8.484;2023-07-28T08:59:28;99919.72;;;22.08;90.43
12949;BME280;6539;49.476;8.484;2023-07-28T09:02:18;99929.63;;;22.09;87.33
12949;BME280;6539;49.476;8.484;2023-07-28T09:05:06;99925.31;;;21.82;89.94
12949;BME280;6539;49.476;8.484;2023-07-28T09:07:57;99932.66;;;21.80;91.08
12949;BME280;6539;49.476;8.484;2023-07-28T09:10:47;99934.56;;;21.68;90.70
12949;BME280;6539;49.476;8.484;2023-07-28T09:13:41;99930.22;;;21.67;92.55
12949;BME280;6539;49.476;8.484;2023-07-28T09:16:27;99930.13;;;21.82;89.99
12949;BME280;6539;49.476;8.484;2023-07-28T09:19:15;99925.66;;;21.90;86.34
12949;BME280;6539;49.476;8.484;2023-07-28T09:22:04;99924.44;;;21.96;86.68
12949;BME280;6539;49.476;8.484;2023-07-28T09:24:51;99924.31;;;22.11;87.61
12949;BME280;6539;49.476;8.484;2023-07-28T09:27:38;99932.09;;;22.27;83.75
12949;BME280;6539;49.476;8.484;2023-07-28T09:30:25;99924.31;;;22.11;86.96
12949;BME280;6539;49.476;8.484;2023-07-28T09:33:12;99939.94;;;22.23;87.28
12949;BME280;6539;49.476;8.484;2023-07-28T09:36:09;99935.88;;;22.24;85.20
12949;BME280;6539;49.476;8.484;2023-07-28T09:38:58;99937.88;;;22.24;83.84
12949;BME280;6539;49.476;8.484;2023-07-28T09:41:49;99939.28;;;22.39;81.26
12949;BME280;6539;49.476;8.484;2023-07-28T09:44:38;99932.47;;;22.46;81.60
12949;BME280;6539;49.476;8.484;2023-07-28T09:47:25;99928.97;;;22.56;80.60
12949;BME280;6539;49.476;8.484;2023-07-28T09:50:15;99930.91;;;22.76;79.12
12949;BME280;6539;49.476;8.484;2023-07-28T09:53:07;99926.47;;;23.01;76.86
12949;BME280;6539;49.476;8.484;2023-07-28T09:55:55;99927.63;;;23.31;72.74
12949;BME280;6539;49.476;8.484;2023-07-28T09:58:49;99924.56;;;23.29;72.99
12949;BME280;6539;49.476;8.484;2023-07-28T10:01:35;99922.56;;;23.35;73.27
12949;BME280;6539;49.476;8.484;2023-07-28T10:04:22;99927.19;;;23.43;73.42
12949;BME280;6539;49.476;8.484;2023-07-28T10:07:09;99925.16;;;23.55;73.85
12949;BME280;6539;49.476;8.484;2023-07-28T10:09:58;99935.91;;;23.73;71.74
12949;BME280;6539;49.476;8.484;2023-07-28T10:12:54;99929.03;;;23.80;69.86
12949;BME280;6539;49.476;8.484;2023-07-28T10:15:46;99944.34;;;23.95;67.88
12949;BME280;6539;49.476;8.484;2023-07-28T10:18:33;99940.53;;;23.98;67.46
12949;BME280;6539;49.476;8.484;2023-07-28T10:21:19;99937.00;;;24.26;66.48
12949;BME280;6539;49.476;8.484;2023-07-28T10:24:05;99935.19;;;24.39;66.67
12949;BME280;6539;49.476;8.484;2023-07-28T10:26:58;99940.03;;;24.61;66.09
12949;BME280;6539;49.476;8.484;2023-07-28T10:29:57;99946.16;;;24.76;64.92
12949;BME280;6539;49.476;8.484;2023-07-28T10:32:47;99938.78;;;24.45;66.17
12949;BME280;6539;49.476;8.484;2023-07-28T10:35:34;99949.25;;;24.34;67.71
12949;BME280;6539;49.476;8.484;2023-07-28T10:38:33;99948.50;;;24.11;67.92
12949;BME280;6539;49.476;8.484;2023-07-28T10:41:20;99951.78;;;24.09;68.70
12949;BME280;6539;49.476;8.484;2023-07-28T10:44:09;99949.75;;;24.15;68.20
12949;BME280;6539;49.476;8.484;2023-07-28T10:46:56;99950.28;;;24.19;68.00
12949;BME280;6539;49.476;8.484;2023-07-28T10:49:42;99960.44;;;24.11;67.47
12949;BME280;6539;49.476;8.484;2023-07-28T10:52:28;99959.16;;;24.07;67.82
12949;BME280;6539;49.476;8.484;2023-07-28T10:55:21;99958.19;;;24.04;67.44
12949;BME280;6539;49.476;8.484;2023-07-28T10:58:10;99957.09;;;23.96;67.46
12949;BME280;6539;49.476;8.484;2023-07-28T11:00:56;99962.44;;;23.94;68.22
12949;BME280;6539;49.476;8.484;2023-07-28T11:03:45;99956.81;;;23.83;68.73
12949;BME280;6539;49.476;8.484;2023-07-28T11:06:34;99953.53;;;23.96;68.45
12949;BME280;6539;49.476;8.484;2023-07-28T11:09:23;99960.09;;;23.71;69.28
12949;BME280;6539;49.476;8.484;2023-07-28T11:12:09;99951.38;;;23.41;71.57
12949;BME280;6539;49.476;8.484;2023-07-28T11:14:56;99945.75;;;23.35;72.10
12949;BME280;6539;49.476;8.484;2023-07-28T11:17:47;99949.56;;;23.38;72.61
12949;BME280;6539;49.476;8.484;2023-07-28T11:20:38;99951.09;;;23.39;71.20
12949;BME280;6539;49.476;8.484;2023-07-28T11:23:24;99956.97;;;23.41;71.49
12949;BME280;6539;49.476;8.484;2023-07-28T11:26:11;99952.41;;;23.43;70.81
12949;BME280;6539;49.476;8.484;2023-07-28T11:28:59;99944.25;;;23.45;70.37
12949;BME280;6539;49.476;8.484;2023-07-28T11:31:47;99940.44;;;23.54;70.21
12949;BME280;6539;49.476;8.484;2023-07-28T11:34:36;99951.91;;;23.56;70.08
12949;BME280;6539;49.476;8.484;2023-07-28T11:37:25;99951.38;;;23.41;70.49
12949;BME280;6539;49.476;8.484;2023-07-28T11:40:13;99952.56;;;23.29;71.67
12949;BME280;6539;49.476;8.484;2023-07-28T11:43:00;99954.53;;;23.12;73.10
12949;BME280;6539;49.476;8.484;2023-07-28T11:45:49;99954.97;;;22.99;74.62
12949;BME280;6539;49.476;8.484;2023-07-28T11:48:35;99957.75;;;22.99;75.02
12949;BME280;6539;49.476;8.484;2023-07-28T11:51:26;99952.94;;;23.00;75.06
12949;BME280;6539;49.476;8.484;2023-07-28T11:54:15;99954.97;;;22.99;75.00
12949;BME280;6539;49.476;8.484;2023-07-28T11:57:01;99959.31;;;23.00;75.15
12949;BME280;6539;49.476;8.484;2023-07-28T11:59:49;99956.78;;;23.02;74.63
12949;BME280;6539;49.476;8.484;2023-07-28T12:02:35;99964.44;;;23.07;74.57
12949;BME280;6539;49.476;8.484;2023-07-28T12:05:21;99956.84;;;23.19;74.44
12949;BME280;6539;49.476;8.484;2023-07-28T12:08:10;99955.69;;;23.36;74.28
12949;BME280;6539;49.476;8.484;2023-07-28T12:10:57;99960.50;;;23.36;73.14
12949;BME280;6539;49.476;8.484;2023-07-28T12:13:52;99958.47;;;23.36;73.09
12949;BME280;6539;49.476;8.484;2023-07-28T12:16:41;99948.56;;;23.41;73.27
12949;BME280;6539;49.476;8.484;2023-07-28T12:19:27;99955.13;;;23.32;72.81
12949;BME280;6539;49.476;8.484;2023-07-28T12:22:13;99959.44;;;23.28;73.50
12949;BME280;6539;49.476;8.484;2023-07-28T12:24:59;99952.03;;;23.25;73.83
12949;BME280;6539;49.476;8.484;2023-07-28T12:27:48;99950.03;;;23.31;74.06
12949;BME280;6539;49.476;8.484;2023-07-28T12:30:35;99958.59;;;23.16;75.20
12949;BME280;6539;49.476;8.484;2023-07-28T12:33:21;99964.47;;;23.13;76.36
12949;BME280;6539;49.476;8.484;2023-07-28T12:36:07;99967.19;;;23.02;77.85
12949;BME280;6539;49.476;8.484;2023-07-28T12:38:53;99960.22;;;22.86;81.81
12949;BME280;6539;49.476;8.484;2023-07-28T12:41:44;99963.38;;;22.62;85.11
12949;BME280;6539;49.476;8.484;2023-07-28T12:44:33;99963.75;;;22.44;84.92
12949;BME280;6539;49.476;8.484;2023-07-28T12:47:19;99962.19;;;22.38;86.52
12949;BME280;6539;49.476;8.484;2023-07-28T12:50:08;99968.47;;;22.33;86.18
12949;BME280;6539;49.476;8.484;2023-07-28T12:52:57;99966.97;;;22.32;85.02
12949;BME280;6539;49.476;8.484;2023-07-28T12:55:43;99973.22;;;22.21;85.04
12949;BME280;6539;49.476;8.484;2023-07-28T12:58:31;99968.06;;;22.14;86.53
12949;BME280;6539;49.476;8.484;2023-07-28T13:01:19;99980.63;;;21.98;89.46
12949;BME280;6539;49.476;8.484;2023-07-28T13:04:05;99987.69;;;21.94;91.52
12949;BME280;6539;49.476;8.484;2023-07-28T13:06:51;99987.44;;;21.72;96.21
12949;BME280;6539;49.476;8.484;2023-07-28T13:09:37;99992.06;;;21.55;98.57
12949;BME280;6539;49.476;8.484;2023-07-28T13:12:23;99988.59;;;21.40;100.00
12949;BME280;6539;49.476;8.484;2023-07-28T13:15:12;100003.88;;;21.24;100.00
12949;BME280;6539;49.476;8.484;2023-07-28T13:18:00;100007.28;;;21.13;100.00
12949;BME280;6539;49.476;8.484;2023-07-28T13:20:49;100000.56;;;21.05;100.00
12949;BME280;6539;49.476;8.484;2023-07-28T13:23:35;99999.03;;;20.90;100.00
12949;BME280;6539;49.476;8.484;2023-07-28T13:26:21;99999.88;;;20.76;100.00
12949;BME280;6539;49.476;8.484;2023-07-28T13:29:07;100001.25;;;20.66;100.00
12949;BME280;6539;49.476;8.484;2023-07-28T13:31:59;99996.34;;;20.61;100.00
12949;BME280;6539;49.476;8.484;2023-07-28T13:34:48;100000.22;;;20.48;100.00
12949;BME280;6539;49.476;8.484;2023-07-28T13:37:34;99998.28;;;20.40;100.00
12949;BME280;6539;49.476;8.484;2023-07-28T13:40:20;100000.78;;;20.38;100.00
12949;BME280;6539;49.476;8.484;2023-07-28T13:43:06;99997.69;;;20.36;100.00
12949;BME280;6539;49.476;8.484;2023-07-28T13:45:54;99988.09;;;20.37;100.00
12949;BME280;6539;49.476;8.484;2023-07-28T13:48:46;99989.94;;;20.40;100.00
12949;BME280;6539;49.476;8.484;2023-07-28T13:51:32;99995.00;;;20.41;100.00
12949;BME280;6539;49.476;8.484;2023-07-28T13:54:18;99993.88;;;20.33;100.00
12949;BME280;6539;49.476;8.484;2023-07-28T13:57:04;99987.25;;;20.31;100.00
12949;BME280;6539;49.476;8.484;2023-07-28T13:59:50;99987.53;;;20.33;100.00
12949;BME280;6539;49.476;8.484;2023-07-28T14:02:37;99990.59;;;20.35;100.00
12949;BME280;6539;49.476;8.484;2023-07-28T14:05:24;99992.31;;;20.32;100.00
12949;BME280;6539;49.476;8.484;2023-07-28T14:08:11;99976.66;;;20.35;100.00
12949;BME280;6539;49.476;8.484;2023-07-28T14:10:57;99987.53;;;20.33;100.00
12949;BME280;6539;49.476;8.484;2023-07-28T14:13:45;99994.63;;;20.34;100.00
12949;BME280;6539;49.476;8.484;2023-07-28T14:16:31;99981.94;;;20.33;100.00
12949;BME280;6539;49.476;8.484;2023-07-28T14:19:17;99986.25;;;20.34;100.00
12949;BME280;6539;49.476;8.484;2023-07-28T14:22:06;99986.75;;;20.32;100.00
12949;BME280;6539;49.476;8.484;2023-07-28T14:24:52;99997.13;;;20.32;100.00
12949;BME280;6539;49.476;8.484;2023-07-28T14:27:41;99996.84;;;20.30;100.00
12949;BME280;6539;49.476;8.484;2023-07-28T14:30:29;99995.03;;;20.27;100.00
12949;BME280;6539;49.476;8.484;2023-07-28T14:33:18;99996.31;;;20.17;100.00
12949;BME280;6539;49.476;8.484;2023-07-28T14:36:07;99998.25;;;20.11;100.00
12949;BME280;6539;49.476;8.484;2023-07-28T14:38:53;100002.75;;;20.08;100.00
12949;BME280;6539;49.476;8.484;2023-07-28T14:41:41;100004.03;;;20.07;100.00
12949;BME280;6539;49.476;8.484;2023-07-28T14:44:30;100000.66;;;20.03;100.00
12949;BME280;6539;49.476;8.484;2023-07-28T14:47:18;100001.31;;;19.98;100.00
12949;BME280;6539;49.476;8.484;2023-07-28T14:50:06;99996.97;;;19.97;100.00
12949;BME280;6539;49.476;8.484;2023-07-28T14:53:00;99998.34;;;20.02;100.00